Terminal Aerodrome Forecast
Issued by NWS

Current Version | Previous Version | Text Only | Print | Product List | Glossary Off
Versions: 1 2 3 4 5 6 7 8 9 10 11 12 13 14 15 16 17 18 19 20 21 22

000
FTUS41 KPBZ 271525 AAA
TAFMGW
TAF AMD
KMGW 271525Z 2715/2812 VRB05KT P6SM BKN025
     FM271600 22010G16KT P6SM SCT040
     FM280000 32003KT P6SM BKN050
     FM280500 18003KT P6SM VCSH BKN090=

USA.gov is the U.S. government's official web portal to all federal, state and local government web resources and services.